DL3NDS-13 Weather Reports


Display with metric or nautical units.
time (UTC)temp
F
wind
direction
speed
MPH
gust
MPH
rain 1hr
in
rain 24hr
in
rain mn
in
humidity
%
barometer
mb
20210612180902 65 273 8.0 0.0 0.00 0.00 0.00 67 1018.1
20210612180404 65 266 8.0 0.0 0.00 0.00 0.00 66 1018.0
20210612175902 65 275 9.0 0.0 0.00 0.00 0.00 65 1017.9
20210612175404 66 287 8.0 0.0 0.00 0.00 0.00 65 1017.9
20210612174902 66 293 6.0 0.0 0.00 0.00 0.00 66 1017.7
20210612174404 66 281 4.0 0.0 0.00 0.00 0.00 66 1017.7
20210612173902 66 278 8.0 0.0 0.00 0.00 0.00 66 1017.7
20210612173404 66 266 12.0 0.0 0.00 0.00 0.00 66 1017.6
20210612172902 66 272 9.0 0.0 0.00 0.00 0.00 67 1017.7
20210612172404 66 272 14.0 0.0 0.00 0.00 0.00 67 1017.7
20210612171902 66 276 11.0 0.0 0.00 0.00 0.00 68 1017.5
20210612171404 66 265 14.0 0.0 0.00 0.00 0.00 68 1017.7
20210612170902 66 274 6.0 0.0 0.00 0.00 0.00 69 1017.6
20210612170404 66 268 14.0 0.0 0.00 0.00 0.00 69 1017.5
20210612165902 65 319 4.0 0.0 0.00 0.00 0.00 73 1017.6
20210612165404 65 329 3.0 0.0 0.00 0.00 0.00 75 1017.5
20210612164902 66 308 6.0 0.0 0.00 0.00 0.00 71 1017.5
20210612164404 65 324 6.0 0.0 0.00 0.00 0.00 74 1017.4
20210612163902 66 315 4.0 0.0 0.00 0.00 0.00 73 1017.4
20210612163404 67 331 4.0 0.0 0.00 0.00 0.00 71 1017.2
20210612162902 68 344 6.0 0.0 0.00 0.00 0.00 66 1017.4
20210612162404 69 284 11.0 0.0 0.00 0.00 0.00 63 1017.1
20210612161902 69 278 17.0 0.0 0.00 0.00 0.00 61 1017.1
20210612161404 69 275 9.0 0.0 0.00 0.00 0.00 62 1017.0
20210612160902 69 279 12.0 0.0 0.00 0.00 0.00 62 1017.0
20210612160404 69 278 8.0 0.0 0.00 0.00 0.00 62 1016.9
20210612155902 69 282 12.0 0.0 0.00 0.00 0.00 61 1017.0
20210612155404 69 288 8.0 0.0 0.00 0.00 0.00 62 1017.0
20210612154902 69 276 8.0 0.0 0.00 0.00 0.00 62 1016.7
20210612154404 70 276 14.0 0.0 0.00 0.00 0.00 62 1016.7
20210612153902 70 292 9.0 0.0 0.00 0.00 0.00 61 1016.7
20210612153404 70 272 20.0 0.0 0.00 0.00 0.00 61 1016.7
20210612152902 70 280 14.0 0.0 0.00 0.00 0.00 61 1016.5
20210612152404 70 266 17.0 0.0 0.00 0.00 0.00 60 1016.6
20210612151902 70 279 16.0 0.0 0.00 0.00 0.00 61 1016.5
20210612151404 71 265 19.0 0.0 0.00 0.00 0.00 59 1016.5
20210612150902 71 270 16.0 0.0 0.00 0.00 0.00 59 1016.4
20210612150404 71 257 16.0 0.0 0.00 0.00 0.00 58 1016.4
20210612145902 71 261 11.0 0.0 0.00 0.00 0.00 58 1016.4
20210612145404 71 280 11.0 0.0 0.00 0.00 0.00 57 1016.5
20210612144902 72 262 20.0 0.0 0.00 0.00 0.00 55 1016.4
20210612144404 72 267 16.0 0.0 0.00 0.00 0.00 55 1016.2
20210612143902 72 253 19.0 0.0 0.00 0.00 0.00 54 1016.2
20210612143404 73 263 22.0 0.0 0.00 0.00 0.00 53 1016.2
20210612142902 73 267 12.0 0.0 0.00 0.00 0.00 53 1016.4
20210612142405 73 260 11.0 0.0 0.00 0.00 0.00 53 1016.2
20210612141902 73 258 16.0 0.0 0.00 0.00 0.00 53 1016.2
20210612141404 73 253 19.0 0.0 0.00 0.00 0.00 53 1016.2
20210612140902 73 278 12.0 0.0 0.00 0.00 0.00 54 1016.2
20210612140404 73 253 17.0 0.0 0.00 0.00 0.00 52 1016.1
20210612135902 72 284 17.0 0.0 0.00 0.00 0.00 53 1016.2
20210612135404 73 274 19.0 0.0 0.00 0.00 0.00 53 1016.2
20210612134902 73 241 16.0 0.0 0.00 0.00 0.00 56 1016.2
20210612134404 73 249 20.0 0.0 0.00 0.00 0.00 55 1016.2
20210612133902 73 245 16.0 0.0 0.00 0.00 0.00 57 1016.2
20210612133404 73 258 17.0 0.0 0.00 0.00 0.00 57 1016.2
20210612132902 73 268 6.0 0.0 0.00 0.00 0.00 61 1016.2
20210612132404 72 261 9.0 0.0 0.00 0.00 0.00 59 1016.2
20210612131902 71 269 9.0 0.0 0.00 0.00 0.00 60 1016.2
20210612131404 72 282 14.0 0.0 0.00 0.00 0.00 59 1016.4
20210612130902 73 265 14.0 0.0 0.00 0.00 0.00 57 1016.2
20210612130404 73 265 17.0 0.0 0.00 0.00 0.00 55 1016.4
20210612125902 74 240 19.0 0.0 0.00 0.00 0.00 54 1016.2
20210612125404 74 250 19.0 0.0 0.00 0.00 0.00 55 1016.4
20210612124902 73 254 12.0 0.0 0.00 0.00 0.00 57 1016.4
20210612124404 74 269 19.0 0.0 0.00 0.00 0.00 55 1016.4
20210612123902 74 240 16.0 0.0 0.00 0.00 0.00 56 1016.4
20210612123404 74 261 12.0 0.0 0.00 0.00 0.00 55 1016.5
20210612122902 73 276 16.0 0.0 0.00 0.00 0.00 58 1016.5
20210612122404 72 281 14.0 0.0 0.00 0.00 0.00 59 1016.5
20210612121902 73 267 6.0 0.0 0.00 0.00 0.00 59 1016.6
20210612121404 72 262 12.0 0.0 0.00 0.00 0.00 57 1016.9
20210612120902 73 257 17.0 0.0 0.00 0.00 0.00 55 1017.2
20210612120404 73 263 14.0 0.0 0.00 0.00 0.00 57 1016.9
20210612115902 72 265 6.0 0.0 0.00 0.00 0.00 60 1016.9
20210612115404 72 285 8.0 0.0 0.00 0.00 0.00 58 1016.9
20210612114902 73 257 12.0 0.0 0.00 0.00 0.00 58 1016.9
20210612114404 73 255 8.0 0.0 0.00 0.00 0.00 58 1017.0
20210612113902 73 253 16.0 0.0 0.00 0.00 0.00 57 1017.2
20210612113404 73 253 16.0 0.0 0.00 0.00 0.00 57 1017.0
20210612112902 73 254 16.0 0.0 0.00 0.00 0.00 58 1017.1
20210612112404 73 235 16.0 0.0 0.00 0.00 0.00 58 1016.9
20210612111902 73 280 16.0 0.0 0.00 0.00 0.00 58 1017.1
20210612111404 72 268 8.0 0.0 0.00 0.00 0.00 58 1017.1
20210612110902 72 271 14.0 0.0 0.00 0.00 0.00 60 1017.2
20210612110404 72 266 24.0 0.0 0.00 0.00 0.00 59 1017.7
20210612105902 72 245 11.0 0.0 0.00 0.00 0.00 62 1017.2
20210612105404 72 269 12.0 0.0 0.00 0.00 0.00 62 1017.4
20210612104902 73 260 11.0 0.0 0.00 0.00 0.00 63 1017.4
20210612104404 71 270 6.0 0.0 0.00 0.00 0.00 66 1017.5
20210612103902 71 256 14.0 0.0 0.00 0.00 0.00 66 1017.7
20210612103404 72 256 11.0 0.0 0.00 0.00 0.00 65 1017.7
20210612102902 71 266 9.0 0.0 0.00 0.00 0.00 66 1017.7
20210612102404 71 262 12.0 0.0 0.00 0.00 0.00 65 1017.7
20210612101902 72 243 12.0 0.0 0.00 0.00 0.00 64 1017.7
20210612101404 71 274 9.0 0.0 0.00 0.00 0.00 66 1017.7
20210612100902 71 280 12.0 0.0 0.00 0.00 0.00 67 1017.7
20210612100404 71 280 11.0 0.0 0.00 0.00 0.00 66 1017.7
20210612095902 72 276 12.0 0.0 0.00 0.00 0.00 64 1017.7
20210612095404 71 280 11.0 0.0 0.00 0.00 0.00 65 1017.7
20210612094902 72 273 14.0 0.0 0.00 0.00 0.00 63 1017.6
20210612094404 72 272 14.0 0.0 0.00 0.00 0.00 64 1017.7
20210612093902 71 272 11.0 0.0 0.00 0.00 0.00 63 1017.7
20210612093404 72 270 11.0 0.0 0.00 0.00 0.00 63 1017.6
20210612092902 72 268 9.0 0.0 0.00 0.00 0.00 62 1017.6
20210612092404 72 265 16.0 0.0 0.00 0.00 0.00 63 1017.6
20210612091902 72 259 12.0 0.0 0.00 0.00 0.00 62 1017.5
20210612090902 72 227 6.0 0.0 0.00 0.00 0.00 65 1017.6
20210612090404 71 268 11.0 0.0 0.00 0.00 0.00 65 1017.7
20210612085902 71 286 4.0 0.0 0.00 0.00 0.00 66 1017.7
20210612085404 71 281 8.0 0.0 0.00 0.00 0.00 66 1017.7
20210612084902 71 268 8.0 0.0 0.00 0.00 0.00 66 1017.7
20210612084404 70 284 11.0 0.0 0.00 0.00 0.00 69 1017.9
20210612083902 70 293 6.0 0.0 0.00 0.00 0.00 68 1017.9
20210612083404 70 283 4.0 0.0 0.00 0.00 0.00 69 1017.7
20210612082902 70 268 11.0 0.0 0.00 0.00 0.00 66 1017.7
20210612081902 70 285 4.0 0.0 0.00 0.00 0.00 68 1018.0
20210612081404 70 306 8.0 0.0 0.00 0.00 0.00 69 1018.0
20210612080902 69 272 11.0 0.0 0.00 0.00 0.00 68 1017.7
20210612080404 69 285 9.0 0.0 0.00 0.00 0.00 69 1017.7
20210612075902 69 328 6.0 0.0 0.00 0.00 0.00 69 1017.7
20210612075404 69 322 4.0 0.0 0.00 0.00 0.00 69 1017.9
20210612074902 69 305 4.0 0.0 0.00 0.00 0.00 69 1018.0
20210612074404 69 288 8.0 0.0 0.00 0.00 0.00 69 1018.1
20210612073902 69 315 4.0 0.0 0.00 0.00 0.00 71 1018.2
20210612072902 68 290 4.0 0.0 0.00 0.00 0.00 71 1018.2
20210612072404 68 317 4.0 0.0 0.00 0.00 0.00 71 1018.2
20210612071902 68 293 6.0 0.0 0.00 0.00 0.00 71 1018.2
20210612071403 69 277 6.0 0.0 0.00 0.00 0.00 69 1018.0
20210612070607 68 273 8.0 0.0 0.00 0.00 0.00 70 1018.2
20210612070108 68 299 4.0 0.0 0.00 0.00 0.00 71 1018.0
20210612065607 68 285 6.0 0.0 0.00 0.00 0.00 71 1018.0
20210612064607 68 285 3.0 0.0 0.00 0.00 0.00 74 1018.1
20210612062802 67 267 4.0 0.0 0.00 0.00 0.00 75 1018.1
20210612062223 67 259 6.0 0.0 0.00 0.00 0.00 75 1018.1
20210612061724 67 310 1.0 0.0 0.00 0.00 0.00 77 1018.2
20210612061223 67 270 6.0 0.0 0.00 0.00 0.00 75 1018.1
20210612060724 67 283 4.0 0.0 0.00 0.00 0.00 76 1018.2
20210612060223 67 0 0.0 0.0 0.00 0.00 0.00 78 1018.2
20210612055223 65 0 0.0 0.0 0.00 0.00 0.00 82 1018.1
20210612054223 63 0 0.0 0.0 0.00 0.00 0.00 85 1018.1
20210612053724 62 216 1.0 0.0 0.00 0.00 0.00 88 1018.2
20210612053223 62 0 0.0 0.0 0.00 0.00 0.00 89 1018.1
20210612052725 61 0 0.0 0.0 0.00 0.00 0.00 90 1018.2
20210612052223 61 0 0.0 0.0 0.00 0.00 0.00 90 1018.2
20210612051725 60 0 0.0 0.0 0.00 0.00 0.00 90 1018.2
20210612051223 60 0 0.0 0.0 0.00 0.00 0.00 89 1018.2
20210612050725 59 0 0.0 0.0 0.00 0.00 0.00 89 1018.1
20210612050223 59 0 0.0 0.0 0.00 0.00 0.00 90 1018.2
20210612045725 59 0 0.0 0.0 0.00 0.00 0.00 90 1018.2
20210612045223 58 0 0.0 0.0 0.00 0.00 0.00 90 1018.2
20210612044725 58 0 0.0 0.0 0.00 0.00 0.00 91 1018.2
20210612044223 57 0 0.0 0.0 0.00 0.00 0.00 92 1018.2
20210612043725 57 0 0.0 0.0 0.00 0.00 0.00 93 1018.2
20210612043223 56 0 0.0 0.0 0.00 0.00 0.00 93 1018.2
20210612042725 56 0 0.0 0.0 0.00 0.00 0.00 92 1018.2
20210612042223 56 0 0.0 0.0 0.00 0.00 0.00 92 1018.2
20210612041724 57 0 0.0 0.0 0.00 0.00 0.00 91 1018.2
20210612041223 57 0 0.0 0.0 0.00 0.00 0.00 94 1018.2
20210612040724 55 216 1.0 0.0 0.00 0.00 0.00 94 1018.2
20210612040223 55 0 0.0 0.0 0.00 0.00 0.00 94 1018.2
20210612035724 55 0 0.0 0.0 0.00 0.00 0.00 94 1018.2
20210612035223 55 0 0.0 0.0 0.00 0.00 0.00 94 1018.1
20210612034724 55 0 0.0 0.0 0.00 0.00 0.00 94 1018.0
20210612034223 55 0 0.0 0.0 0.00 0.00 0.00 93 1018.0
20210612033724 55 0 0.0 0.0 0.00 0.00 0.00 94 1017.9
20210612033223 55 0 0.0 0.0 0.00 0.00 0.00 94 1017.9
20210612032724 55 0 0.0 0.0 0.00 0.00 0.00 94 1017.9
20210612032223 55 0 0.0 0.0 0.00 0.00 0.00 94 1017.9
20210612031724 55 0 0.0 0.0 0.00 0.00 0.00 94 1017.9
20210612031223 55 0 0.0 0.0 0.00 0.00 0.00 94 1017.9
20210612030724 55 0 0.0 0.0 0.00 0.00 0.00 94 1017.9
20210612030223 55 0 0.0 0.0 0.00 0.00 0.00 94 1018.0
20210612025724 55 0 0.0 0.0 0.00 0.00 0.00 93 1018.0
20210612025223 55 0 0.0 0.0 0.00 0.00 0.00 93 1018.1
20210612024724 55 0 0.0 0.0 0.00 0.00 0.00 93 1018.1
20210612024223 55 0 0.0 0.0 0.00 0.00 0.00 93 1018.2
20210612023724 55 0 0.0 0.0 0.00 0.00 0.00 93 1018.2
20210612023223 55 0 0.0 0.0 0.00 0.00 0.00 92 1018.2
20210612022724 55 0 0.0 0.0 0.00 0.00 0.00 92 1018.2
20210612022223 56 0 0.0 0.0 0.00 0.00 0.00 92 1018.2
20210612021724 56 0 0.0 0.0 0.00 0.00 0.00 92 1018.2
20210612021223 56 0 0.0 0.0 0.00 0.00 0.00 92 1018.2
20210612020724 56 0 0.0 0.0 0.00 0.00 0.00 92 1018.2
20210612020223 56 0 0.0 0.0 0.00 0.00 0.00 92 1018.4
20210612015724 56 0 0.0 0.0 0.00 0.00 0.00 92 1018.4
20210612015223 56 0 0.0 0.0 0.00 0.00 0.00 92 1018.4
20210612014223 56 0 0.0 0.0 0.00 0.00 0.00 93 1018.4
20210612013223 56 0 0.0 0.0 0.00 0.00 0.00 93 1018.5
20210612012724 56 0 0.0 0.0 0.00 0.00 0.00 92 1018.4
20210612012223 57 0 0.0 0.0 0.00 0.00 0.00 92 1018.4
20210612011724 57 0 0.0 0.0 0.00 0.00 0.00 92 1018.4
20210612011223 57 0 0.0 0.0 0.00 0.00 0.00 92 1018.6
20210612010724 57 0 0.0 0.0 0.00 0.00 0.00 92 1018.6
20210612010223 57 0 0.0 0.0 0.00 0.00 0.00 93 1018.7
20210612005724 57 0 0.0 0.0 0.00 0.00 0.00 92 1018.7
20210612005223 57 0 0.0 0.0 0.00 0.00 0.00 92 1018.7
20210612004223 57 0 0.0 0.0 0.00 0.00 0.00 92 1018.7
20210612003724 57 0 0.0 0.0 0.00 0.00 0.00 92 1018.7
20210612003223 57 0 0.0 0.0 0.00 0.00 0.00 92 1018.7
20210612002724 57 0 0.0 0.0 0.00 0.00 0.00 92 1018.7
20210612002223 57 0 0.0 0.0 0.00 0.00 0.00 91 1018.7
20210612001724 57 0 0.0 0.0 0.00 0.00 0.00 91 1018.7
20210612001223 57 0 0.0 0.0 0.00 0.00 0.00 90 1018.7
20210612000724 57 0 0.0 0.0 0.00 0.00 0.00 89 1018.7
20210612000225 57 0 0.0 0.0 0.00 0.00 0.00 89 1018.7
20210611235724 58 0 0.0 0.0 0.00 0.00 0.00 89 1018.7
20210611235223 58 0 0.0 0.0 0.00 0.00 0.00 90 1018.7
20210611234724 58 0 0.0 0.0 0.00 0.00 0.00 89 1018.7
20210611234223 59 0 0.0 0.0 0.00 0.00 0.00 89 1018.7
20210611233223 59 0 0.0 0.0 0.00 0.00 0.00 89 1018.7
20210611232724 59 0 0.0 0.0 0.00 0.00 0.00 89 1018.7
20210611232223 59 0 0.0 0.0 0.00 0.00 0.00 89 1018.7
20210611231724 59 0 0.0 0.0 0.00 0.00 0.00 89 1018.7
20210611231223 59 0 0.0 0.0 0.00 0.00 0.00 88 1018.7
20210611230724 60 0 0.0 0.0 0.00 0.00 0.00 88 1018.9
20210611230223 60 0 0.0 0.0 0.00 0.00 0.00 88 1018.9
20210611225724 60 0 0.0 0.0 0.00 0.00 0.00 88 1018.9
20210611225223 60 0 0.0 0.0 0.00 0.00 0.00 88 1019.0
20210611224725 60 0 0.0 0.0 0.00 0.00 0.00 87 1019.0
20210611224223 61 0 0.0 0.0 0.00 0.00 0.00 87 1019.1
20210611223724 61 0 0.0 0.0 0.00 0.00 0.00 86 1019.1
20210611223223 61 0 0.0 0.0 0.00 0.00 0.00 85 1019.1
20210611222724 61 0 0.0 0.0 0.00 0.00 0.00 85 1019.1
20210611222223 61 0 0.0 0.0 0.00 0.00 0.00 84 1019.1
20210611221223 61 0 0.0 0.0 0.00 0.00 0.00 84 1019.0
20210611220724 61 0 0.0 0.0 0.00 0.00 0.00 85 1019.1
20210611220223 61 0 0.0 0.0 0.00 0.00 0.00 83 1019.0
20210611215724 62 0 0.0 0.0 0.00 0.00 0.00 84 1019.0
20210611215223 62 0 0.0 0.0 0.00 0.00 0.00 84 1019.2
20210611214724 62 0 0.0 0.0 0.00 0.00 0.00 84 1019.1
20210611214223 63 0 0.0 0.0 0.00 0.00 0.00 82 1019.0
20210611213724 63 0 0.0 0.0 0.00 0.00 0.00 83 1019.0
20210611213223 64 0 0.0 0.0 0.00 0.00 0.00 83 1019.1
20210611212724 64 0 0.0 0.0 0.00 0.00 0.00 83 1019.1
20210611212223 64 0 0.0 0.0 0.00 0.00 0.00 81 1019.1
20210611211724 64 0 0.0 0.0 0.00 0.00 0.00 79 1019.0
20210611211223 64 0 0.0 0.0 0.00 0.00 0.00 80 1019.0
20210611210724 64 215 1.0 0.0 0.00 0.00 0.00 81 1019.0
20210611210223 64 216 1.0 0.0 0.00 0.00 0.00 81 1019.0
20210611205724 64 0 0.0 0.0 0.00 0.00 0.00 81 1019.0
20210611205223 64 0 0.0 0.0 0.00 0.00 0.00 82 1019.0
20210611204724 64 0 0.0 0.0 0.00 0.00 0.00 82 1019.0
20210611204223 64 0 0.0 0.0 0.00 0.00 0.00 81 1019.1
20210611203724 64 216 1.0 0.0 0.00 0.00 0.00 81 1019.1
20210611203223 64 0 0.0 0.0 0.00 0.00 0.00 80 1019.0
20210611202724 65 0 0.0 0.0 0.00 0.00 0.00 79 1019.1
20210611202223 65 219 3.0 0.0 0.00 0.00 0.00 77 1019.1
20210611201724 66 0 0.0 0.0 0.00 0.00 0.00 75 1019.2
20210611201223 66 0 0.0 0.0 0.00 0.00 0.00 73 1019.1
20210611200724 66 281 1.0 0.0 0.00 0.00 0.00 73 1019.1
20210611200223 66 281 3.0 0.0 0.00 0.00 0.00 73 1019.2
20210611195724 65 299 3.0 0.0 0.00 0.00 0.00 74 1019.2
20210611195223 65 0 0.0 0.0 0.00 0.00 0.00 75 1019.2
20210611194724 65 305 3.0 0.0 0.00 0.00 0.00 75 1019.2
20210611194223 65 0 0.0 0.0 0.00 0.00 0.00 76 1019.0
20210611193724 64 0 0.0 0.0 0.00 0.00 0.00 78 1018.9
20210611193223 64 0 0.0 0.0 0.00 0.00 0.00 76 1018.7
20210611192724 66 0 0.0 0.0 0.00 0.00 0.00 70 1018.7
20210611192223 66 301 1.0 0.0 0.00 0.00 0.00 71 1018.7
20210611191724 66 0 0.0 0.0 0.00 0.00 0.00 71 1018.7
20210611191223 66 0 0.0 0.0 0.00 0.00 0.00 73 1018.7
20210611190724 67 0 0.0 0.0 0.00 0.00 0.00 69 1018.7
20210611190223 68 0 0.0 0.0 0.00 0.00 0.00 68 1018.6
20210611185724 68 287 1.0 0.0 0.00 0.00 0.00 67 1018.5
20210611185223 68 299 1.0 0.0 0.00 0.00 0.00 66 1018.4
20210611184724 68 291 1.0 0.0 0.00 0.00 0.00 66 1018.6
20210611184223 69 293 1.0 0.0 0.00 0.00 0.00 65 1018.5
20210611183724 69 288 3.0 0.0 0.00 0.00 0.00 64 1018.5
20210611183223 69 293 3.0 0.0 0.00 0.00 0.00 64 1018.5
20210611182724 69 282 3.0 0.0 0.00 0.00 0.00 64 1018.5
20210611182223 69 284 4.0 0.0 0.00 0.00 0.00 63 1018.6
20210611181724 69 284 6.0 0.0 0.00 0.00 0.00 62 1018.5
20210611181223 70 279 4.0 0.0 0.00 0.00 0.00 62 1018.5